YYEA weather

Yeaburn Airport
Victoria, Australia

Public forecast

Using degrees Celsius for public forecast. Weather courtesy of forecast.io.

Closest aviation weather report (METAR) to Yeaburn Airport

Closest report is Melbourne International Airport, 37.7 nm (69.9 km) SW. Retrieved 2019/10/18 02:33 UTC (0 seconds ago):

YMML 180233Z 32017G30KT CAVOK 19/04 Q1012 FM0233 MOD TURB BLW 5000FT

Closest aviation forecast (TAF) to Yeaburn Airport

Closest forecast is Melbourne International Airport, 37.7 nm (69.9 km) SW. Retrieved 2019-10-18 00:00 UTC (2 hours ago):

TAF YMML 172315Z 1800/1906 32020G34KT CAVOK FM180700 30014KT CAVOK FM180900 26015G25KT 9999 -SHRA FEW040 BKN050 FM181100 27010KT 9999 SCT040 FM182200 27015G28KT 9999 SCT040 INTER 1809/1812 5000 SHRA SCT025 INTER 1904/1906 5000 SHRA SCT025